Aérodrome :
LOGIN :

S'inscrire | Disclaimer

   EN    FR    IT 

 










Légende :    VFR   VFR Marginal   IFR   IFR Intensif   IFR Très Intensif
Visi : 
Plafond : 
>= 8 km
>= 3000ft
5 à 8 km
1000 à 3000 ft
1500m à 5 km
500 à 1000 ft
800 à 1500m
200 à 500 ft
< 800m
< 200 ft
Symboles :   Orages  Brouillard  Fortes neiges  Fortes précipitations  Vent > 20 kt
SIGMETs :   Divers  Orages  Givrage  Turbulence  Onde Orograph.  Cendres Volcan.






- Altitude de l'aérodrome : 502 ft
- Code IATA : ORK


EICK - Cork

DERNIER METAR :
  • 241530Z 29017KT 9999 SCT017CB SCT250 09/03 Q1007 NOSIG

METARs EXPIRÉS :
  • 241500Z 28020KT 9999 FEW017CB SCT250 09/03 Q1007 NOSIG
  • 241430Z 28021KT 9999 SCT017CB BKN250 09/04 Q1006 NOSIG
  • 241400Z 28020G32KT 9999 FEW017CB SCT250 08/04 Q1006 NOSIG
  • 241330Z 30017KT 9999 -SHRA BKN017CB BKN250 07/05 Q1006 NOSIG
  • 241300Z 28020G32KT 9999 SCT018 BKN250 09/05 Q1006 NOSIG

TAF TAF EICK
Valide du 24 à 12h jusqu'au 25 à 12h UTC


241100Z 2412/2512 26020KT 9999 SCT018 BKN025
TEMPO 2412/2512 25021G31KT 5000 -SHRAGS SCT018CB BKN020
BECMG 2418/2420 25012KT
BECMG 2510/2512 28020G35KT



MET'MAP, la Météo Aéronautique d'un coup d'oeil ! - Copyright ORBIFLY Décembre 2007 - Disclaimer

ORBIFLY MET'MAP TEAM :

Programmation & Développement : Alexandra Zaïnal
Sur une idée originale de : Baudouin d'Aumeries
Assistance à la programmation : Marc-Olivier Méhu
Soutien technique & logistique : Manuel Goepfert

Contact : metmap@orbifly.com




SOURCES & CREDITS :

   NOAA